Terminal Aerodrome Forecast
Issued by NWS Sioux Falls, SD

Home | Current Version | Previous Version | Graphics & Text | Print | Product List | Glossary On
Versions: 1 2 3 4 5 6 7 8 9 10 11 12 13 14 15 16 17 18 19 20 21 22 23 24 25 26 27 28 29
272
FTUS43 KFSD 211125
TAFSUX
TAF
KSUX 211125Z 2112/2212 30013KT P6SM SCT015 OVC025
      TEMPO 2112/2114 BKN015
     FM211500 30015G23KT P6SM OVC028
     FM211800 30016G24KT P6SM BKN040
     FM211900 30016G24KT P6SM SCT045
     FM220000 31010KT P6SM FEW250
     FM220200 23005KT P6SM SCT140=

USA.gov is the U.S. government's official web portal to all federal, state and local government web resources and services.